Time;durP1;ratioP1;P1;durP2;ratioP2;P2;SDS_P1;SDS_P2;PMS_P1;PMS_P2;Temp;Humidity;BMP_temperature;BMP_pressure;BME280_temperature;BME280_humidity;BME280_pressure;Samples;Min_cycle;Max_cycle;Signal;HPM_P1;HPM_P2
2022/12/08 00:00:04;;;;;;;0.00;0.00;;;;;;;0.94;100.00;98371.06;5024169;28;20273;-61
2022/12/08 00:02:42;;;;;;;0.00;0.00;;;;;;;0.94;100.00;98368.50;5020628;28;20239;-61
2022/12/08 00:10:37;;;;;;;0.03;0.03;;;;;;;1.01;100.00;98362.88;5029281;28;20280;-61
2022/12/08 00:13:04;;;;;;;0.10;0.10;;;;;;;1.02;100.00;98361.13;5019091;28;20231;-61
2022/12/08 00:15:30;;;;;;;0.00;0.00;;;;;;;1.03;100.00;98361.03;5021054;28;20263;-61
2022/12/08 00:17:58;;;;;;;0.00;0.00;;;;;;;1.06;100.00;98361.78;5014425;28;20239;-61
2022/12/08 00:20:25;;;;;;;0.00;0.00;;;;;;;1.09;100.00;98353.84;5024338;28;20703;-62
2022/12/08 00:22:51;;;;;;;0.00;0.00;;;;;;;1.08;100.00;98345.31;5021067;28;20232;-60
2022/12/08 00:25:18;;;;;;;0.10;0.10;;;;;;;1.10;100.00;98343.47;5014612;28;20218;-61
2022/12/08 00:27:44;;;;;;;0.00;0.00;;;;;;;1.14;100.00;98337.22;5022708;28;20228;-61
2022/12/08 00:30:12;;;;;;;0.03;0.03;;;;;;;1.14;100.00;98341.53;5025628;28;20234;-61
2022/12/08 00:32:38;;;;;;;0.00;0.00;;;;;;;1.13;100.00;98337.31;5021725;28;20242;-61
2022/12/08 00:35:07;;;;;;;0.00;0.00;;;;;;;1.12;100.00;98338.22;5023330;28;20239;-61
2022/12/08 00:37:33;;;;;;;0.00;0.00;;;;;;;1.16;100.00;98343.09;5021450;28;20258;-61
2022/12/08 00:40:00;;;;;;;0.00;0.00;;;;;;;1.15;100.00;98332.88;5019999;28;20327;-61
2022/12/08 00:42:26;;;;;;;0.00;0.00;;;;;;;1.20;100.00;98330.84;5022675;28;20239;-61
2022/12/08 00:44:53;;;;;;;0.00;0.00;;;;;;;1.20;100.00;98327.47;5022281;28;20227;-61
2022/12/08 00:47:20;;;;;;;0.00;0.00;;;;;;;1.17;100.00;98331.03;5024277;28;20830;-61
2022/12/08 00:49:46;;;;;;;0.00;0.00;;;;;;;1.19;100.00;98329.19;5020430;28;20243;-61
2022/12/08 00:52:14;;;;;;;0.00;0.00;;;;;;;1.18;100.00;98320.66;5021999;28;20227;-61
2022/12/08 00:54:41;;;;;;;0.00;0.00;;;;;;;1.21;100.00;98324.78;5023724;28;20349;-60
2022/12/08 00:57:07;;;;;;;0.00;0.00;;;;;;;1.22;100.00;98318.72;5014167;28;20239;-61
2022/12/08 00:59:34;;;;;;;0.00;0.00;;;;;;;1.23;100.00;98320.38;5022215;28;20742;-61
2022/12/08 01:02:00;;;;;;;0.00;0.00;;;;;;;1.25;100.00;98315.94;5017817;28;20235;-61
2022/12/08 01:04:27;;;;;;;0.00;0.00;;;;;;;1.25;100.00;98321.09;5021158;28;20243;-60
2022/12/08 01:06:53;;;;;;;0.10;0.10;;;;;;;1.28;100.00;98313.19;5021633;28;20231;-61
2022/12/08 01:09:21;;;;;;;0.00;0.00;;;;;;;1.32;100.00;98318.97;5005652;28;20563;-61
2022/12/08 01:11:48;;;;;;;0.10;0.10;;;;;;;1.28;100.00;98317.50;5020694;28;20873;-62
2022/12/08 01:14:15;;;;;;;0.00;0.00;;;;;;;1.28;100.00;98320.09;5021842;28;20232;-61
2022/12/08 01:16:42;;;;;;;0.00;0.00;;;;;;;1.28;100.00;98318.31;5018328;28;20242;-62
2022/12/08 01:19:10;;;;;;;0.00;0.00;;;;;;;1.27;100.00;98321.81;5017404;28;20235;-61
2022/12/08 01:21:36;;;;;;;0.00;0.00;;;;;;;1.30;100.00;98326.75;5022001;28;20298;-61
2022/12/08 01:24:03;;;;;;;0.00;0.00;;;;;;;1.31;100.00;98319.88;5021959;28;20262;-61
2022/12/08 01:26:31;;;;;;;0.00;0.00;;;;;;;1.30;100.00;98326.75;5005037;28;20216;-62
2022/12/08 01:28:57;;;;;;;0.10;0.10;;;;;;;1.30;100.00;98316.47;5019165;28;20232;-61
2022/12/08 01:31:24;;;;;;;0.00;0.00;;;;;;;1.31;100.00;98317.31;5021484;28;20247;-61
2022/12/08 01:33:51;;;;;;;0.00;0.00;;;;;;;1.35;100.00;98315.34;5018026;28;20242;-61
2022/12/08 01:36:21;;;;;;;0.00;0.00;;;;;;;1.30;100.00;98316.47;5005140;28;20222;-61
2022/12/08 01:38:48;;;;;;;0.10;0.10;;;;;;;1.30;100.00;98307.94;5020938;28;20236;-61
2022/12/08 01:41:15;;;;;;;0.00;0.00;;;;;;;1.34;100.00;98311.97;5017402;28;20595;-61
2022/12/08 01:43:58;;;;;;;0.00;0.00;;;;;;;1.31;100.00;98307.84;5018299;28;20585;-61
2022/12/08 01:46:26;;;;;;;0.00;0.00;;;;;;;1.31;100.00;98305.25;5021911;28;20230;-61
2022/12/08 01:49:00;;;;;;;0.03;0.03;;;;;;;1.31;100.00;98307.84;5020969;28;20235;-61
2022/12/08 01:51:27;;;;;;;0.10;0.10;;;;;;;1.31;100.00;98312.16;5021537;28;20231;-61
2022/12/08 01:53:54;;;;;;;0.00;0.00;;;;;;;1.31;100.00;98307.03;5021760;28;20236;-61
2022/12/08 01:56:28;;;;;;;0.00;0.00;;;;;;;1.30;100.00;98301.03;5022512;28;20228;-61
2022/12/08 01:58:56;;;;;;;0.00;0.00;;;;;;;1.33;100.00;98302.59;5021821;28;20227;-61
2022/12/08 02:01:23;;;;;;;0.00;0.00;;;;;;;1.37;100.00;98298.06;5022362;28;20243;-61
2022/12/08 02:03:54;;;;;;;0.00;0.00;;;;;;;1.37;100.00;98298.06;5017594;28;20223;-61
2022/12/08 02:06:21;;;;;;;0.00;0.00;;;;;;;1.38;100.00;98298.00;5025078;28;20262;-61
2022/12/08 02:08:48;;;;;;;0.00;0.00;;;;;;;1.42;100.00;98290.88;5020446;28;20237;-61
2022/12/08 02:11:15;;;;;;;0.00;0.00;;;;;;;1.35;100.00;98290.47;5019846;28;20223;-61
2022/12/08 02:13:45;;;;;;;0.00;0.00;;;;;;;1.33;100.00;98287.19;5018134;28;20286;-61
2022/12/08 02:16:26;;;;;;;0.00;0.00;;;;;;;1.29;100.00;98280.59;5002141;28;20224;-61
2022/12/08 02:19:07;;;;;;;0.00;0.00;;;;;;;1.09;100.00;98274.16;5021229;28;20238;-61
2022/12/08 02:21:41;;;;;;;0.00;0.00;;;;;;;0.95;100.00;98270.75;5020917;28;20240;-61
2022/12/08 02:24:14;;;;;;;0.00;0.00;;;;;;;0.72;100.00;98261.91;5016784;28;20238;-61
2022/12/08 02:27:07;;;;;;;0.00;0.00;;;;;;;0.55;100.00;98258.66;5018511;28;20240;-61
2022/12/08 02:30:15;;;;;;;0.00;0.00;;;;;;;0.29;100.00;98250.03;5021788;28;20227;-61
2022/12/08 02:33:18;;;;;;;0.00;0.00;;;;;;;0.14;100.00;98246.69;5015492;28;20242;-61
2022/12/08 02:35:56;;;;;;;0.00;0.00;;;;;;;-0.01;100.00;98251.81;5018728;28;20742;-60
2022/12/08 02:38:34;;;;;;;0.00;0.00;;;;;;;-0.02;100.00;98255.31;5019566;28;20243;-61
2022/12/08 02:41:16;;;;;;;0.00;0.00;;;;;;;-0.18;100.00;98255.41;5015368;28;20289;-61
2022/12/08 02:43:47;;;;;;;0.00;0.00;;;;;;;-0.21;100.00;98249.63;5017116;28;20239;-61
2022/12/08 02:46:19;;;;;;;0.10;0.10;;;;;;;-0.21;100.00;98252.19;5020397;28;20232;-61
2022/12/08 02:48:46;;;;;;;0.07;0.07;;;;;;;-0.19;100.00;98247.81;5017034;28;20708;-61
2022/12/08 02:51:14;;;;;;;0.00;0.00;;;;;;;-0.12;100.00;98243.16;5018538;28;20242;-61
2022/12/08 02:53:41;;;;;;;0.00;0.00;;;;;;;-0.09;100.00;98243.75;5018325;28;20243;-61
2022/12/08 02:56:21;;;;;;;0.00;0.00;;;;;;;-0.10;100.00;98242.13;5020080;28;20238;-60
2022/12/08 02:59:18;;;;;;;0.00;0.00;;;;;;;-0.06;100.00;98245.34;5019933;28;20231;-61
2022/12/08 03:01:56;;;;;;;0.00;0.00;;;;;;;-0.07;100.00;98248.81;5019828;28;20232;-60
2022/12/08 03:04:35;;;;;;;0.00;0.00;;;;;;;-0.08;100.00;98230.03;5018719;28;20231;-61
2022/12/08 03:07:08;;;;;;;0.00;0.00;;;;;;;-0.06;100.00;98229.94;5017360;28;20262;-61
2022/12/08 03:09:39;;;;;;;0.00;0.00;;;;;;;-0.08;100.00;98227.47;5023195;28;20259;-61
2022/12/08 03:12:14;;;;;;;0.00;0.00;;;;;;;-0.10;100.00;98224.16;5018777;28;20709;-62
2022/12/08 03:14:45;;;;;;;0.00;0.00;;;;;;;-0.16;100.00;98219.41;5003962;28;20230;-61
2022/12/08 03:17:14;;;;;;;0.00;0.00;;;;;;;-0.14;100.00;98221.88;5019150;28;20334;-61
2022/12/08 03:19:43;;;;;;;0.10;0.10;;;;;;;-0.14;100.00;98220.13;5017773;28;20231;-61
2022/12/08 03:22:12;;;;;;;0.00;0.00;;;;;;;-0.11;100.00;98211.44;5002768;28;20238;-61
2022/12/08 03:24:43;;;;;;;0.00;0.00;;;;;;;-0.09;100.00;98214.72;5020408;28;20323;-61
2022/12/08 03:27:14;;;;;;;0.00;0.00;;;;;;;-0.09;100.00;98209.59;5019461;28;20235;-62
2022/12/08 03:29:41;;;;;;;0.00;0.00;;;;;;;-0.08;100.00;98201.81;5017086;28;20280;-61
2022/12/08 03:32:14;;;;;;;0.00;0.00;;;;;;;-0.06;100.00;98202.53;5019649;28;20242;-61
2022/12/08 03:34:43;;;;;;;0.00;0.00;;;;;;;-0.05;100.00;98200.81;4993991;28;20233;-61
2022/12/08 03:37:12;;;;;;;0.00;0.00;;;;;;;0.01;100.00;98202.97;5022538;28;20575;-61
2022/12/08 03:39:38;;;;;;;0.00;0.00;;;;;;;0.05;100.00;98196.72;5020738;28;20231;-61
2022/12/08 03:42:05;;;;;;;0.00;0.00;;;;;;;0.05;100.00;98195.91;5023769;28;20738;-61
2022/12/08 03:44:32;;;;;;;0.00;0.00;;;;;;;0.06;100.00;98187.31;5025770;28;20235;-61
2022/12/08 03:46:58;;;;;;;0.00;0.00;;;;;;;0.12;100.00;98186.91;5021355;28;20297;-61
2022/12/08 03:49:25;;;;;;;0.00;0.00;;;;;;;0.12;100.00;98185.16;5020600;28;20237;-61
2022/12/08 03:51:51;;;;;;;0.00;0.00;;;;;;;0.13;100.00;98180.88;5019743;28;20231;-61
2022/12/08 03:54:19;;;;;;;0.00;0.00;;;;;;;0.19;100.00;98188.19;5029809;28;20239;-62
2022/12/08 03:56:46;;;;;;;0.00;0.00;;;;;;;0.24;100.00;98183.59;5022871;28;20631;-61
2022/12/08 03:59:12;;;;;;;0.00;0.00;;;;;;;0.30;100.00;98179.78;5023518;28;20219;-62
2022/12/08 04:01:39;;;;;;;0.00;0.00;;;;;;;0.33;100.00;98182.16;5007271;28;20232;-62
2022/12/08 04:04:05;;;;;;;0.00;0.00;;;;;;;0.33;100.00;98182.16;5027378;28;20233;-62
2022/12/08 04:06:33;;;;;;;0.00;0.00;;;;;;;0.35;100.00;98179.53;5028641;28;20238;-62
2022/12/08 04:09:00;;;;;;;0.00;0.00;;;;;;;0.39;100.00;98171.50;5027867;28;20666;-61
2022/12/08 04:11:28;;;;;;;0.10;0.10;;;;;;;0.43;100.00;98182.44;5032369;28;20683;-61
2022/12/08 04:13:54;;;;;;;0.00;0.00;;;;;;;0.44;100.00;98179.75;5024874;28;20779;-62
2022/12/08 04:16:23;;;;;;;0.00;0.00;;;;;;;0.50;100.00;98182.84;5024798;28;20238;-62
2022/12/08 04:18:50;;;;;;;0.00;0.00;;;;;;;0.50;100.00;98180.28;5018585;28;20246;-62
2022/12/08 04:21:18;;;;;;;0.00;0.00;;;;;;;0.51;100.00;98167.34;5029981;28;20223;-62
2022/12/08 04:23:45;;;;;;;0.00;0.00;;;;;;;0.56;100.00;98167.03;5030125;28;21315;-62
2022/12/08 04:26:12;;;;;;;0.00;0.00;;;;;;;0.58;100.00;98168.59;5031256;28;20231;-61
2022/12/08 04:28:40;;;;;;;0.00;0.00;;;;;;;0.60;100.00;98165.94;5025418;28;20245;-62
2022/12/08 04:31:07;;;;;;;0.10;0.10;;;;;;;0.61;100.00;98156.47;5245195;22;20230;-62
2022/12/08 04:33:34;;;;;;;0.00;0.00;;;;;;;0.66;100.00;98165.53;5062338;28;20230;-62
2022/12/08 04:36:01;;;;;;;0.10;0.10;;;;;;;0.72;100.00;98162.56;5064070;28;20315;-62
2022/12/08 04:38:28;;;;;;;0.00;0.00;;;;;;;0.80;100.00;98164.63;5065700;28;20240;-62
2022/12/08 04:40:55;;;;;;;0.07;0.07;;;;;;;0.86;100.00;98168.56;5063356;28;20241;-61
2022/12/08 04:43:21;;;;;;;0.00;0.00;;;;;;;0.91;100.00;98158.81;5065324;28;21231;-62
2022/12/08 04:45:49;;;;;;;0.00;0.00;;;;;;;0.95;100.00;98157.69;5064038;28;20279;-62
2022/12/08 04:48:16;;;;;;;0.00;0.00;;;;;;;0.99;100.00;98151.41;5065604;28;20759;-62
2022/12/08 04:50:45;;;;;;;0.00;0.00;;;;;;;1.04;100.00;98161.38;5063529;28;20693;-62
2022/12/08 04:53:13;;;;;;;0.03;0.03;;;;;;;1.11;100.00;98151.50;5065327;28;20230;-61
2022/12/08 04:55:40;;;;;;;0.00;0.00;;;;;;;1.13;100.00;98154.78;5064185;28;20241;-61
2022/12/08 04:58:07;;;;;;;0.00;0.00;;;;;;;1.17;100.00;98153.66;5064848;28;20231;-61
2022/12/08 05:00:34;;;;;;;0.00;0.00;;;;;;;1.21;100.00;98160.22;5066131;28;20227;-61
2022/12/08 05:03:02;;;;;;;0.00;0.00;;;;;;;1.25;100.00;98159.09;5063476;28;20253;-61
2022/12/08 05:05:28;;;;;;;0.00;0.00;;;;;;;1.27;100.00;98154.69;5064808;28;20226;-61
2022/12/08 05:07:55;;;;;;;0.00;0.00;;;;;;;1.29;100.00;98149.44;5063385;28;20231;-62
2022/12/08 05:10:22;;;;;;;0.00;0.00;;;;;;;1.30;100.00;98151.91;5064403;28;20238;-61
2022/12/08 05:12:48;;;;;;;0.00;0.00;;;;;;;1.25;100.00;98143.66;5062988;28;20238;-61
2022/12/08 05:15:15;;;;;;;0.00;0.00;;;;;;;1.29;100.00;98152.81;5065290;28;20276;-62
2022/12/08 05:17:42;;;;;;;0.00;0.00;;;;;;;1.30;100.00;98154.47;5064534;28;20230;-61
2022/12/08 05:20:11;;;;;;;0.00;0.00;;;;;;;1.33;100.00;98148.31;5065183;28;20238;-61
2022/12/08 05:22:38;;;;;;;0.00;0.00;;;;;;;1.33;100.00;98143.97;5065758;28;20556;-61
2022/12/08 05:25:05;;;;;;;0.00;0.00;;;;;;;1.32;100.00;98138.94;5061873;28;20227;-61
2022/12/08 05:27:31;;;;;;;0.00;0.00;;;;;;;1.36;100.00;98136.97;5064838;28;20234;-61
2022/12/08 05:29:58;;;;;;;0.00;0.00;;;;;;;1.36;100.00;98140.38;5062901;28;20237;-62
2022/12/08 05:32:24;;;;;;;0.00;0.00;;;;;;;1.40;100.00;98141.00;5064690;28;20718;-61
2022/12/08 05:34:51;;;;;;;0.10;0.10;;;;;;;1.41;100.00;98143.47;5062701;28;20225;-61
2022/12/08 05:37:19;;;;;;;0.00;0.00;;;;;;;1.43;100.00;98144.19;5064180;28;20226;-61
2022/12/08 05:39:46;;;;;;;0.00;0.00;;;;;;;1.45;100.00;98144.06;5063147;28;20641;-61
2022/12/08 05:42:13;;;;;;;0.00;0.00;;;;;;;1.45;100.00;98136.34;5064868;28;20287;-62
2022/12/08 05:44:39;;;;;;;0.10;0.10;;;;;;;1.49;100.00;98135.22;5063433;28;20799;-62
2022/12/08 05:47:06;;;;;;;0.00;0.00;;;;;;;1.45;100.00;98133.78;5064356;28;20596;-62
2022/12/08 05:49:32;;;;;;;0.00;0.00;;;;;;;1.46;100.00;98133.69;5065300;28;20276;-62
2022/12/08 05:51:59;;;;;;;0.00;0.00;;;;;;;1.50;100.00;98138.63;5062109;28;20903;-61
2022/12/08 05:54:27;;;;;;;0.00;0.00;;;;;;;1.52;100.00;98134.19;5064209;28;20295;-62
2022/12/08 05:56:53;;;;;;;0.07;0.07;;;;;;;1.51;100.00;98135.94;5062897;28;20763;-62
2022/12/08 05:59:20;;;;;;;0.10;0.10;;;;;;;1.52;100.00;98131.63;5064780;28;20702;-62
2022/12/08 06:01:46;;;;;;;0.00;0.00;;;;;;;1.50;100.00;98130.91;5062638;28;20241;-62
2022/12/08 06:04:13;;;;;;;0.00;0.00;;;;;;;1.49;100.00;98135.22;5064095;28;20288;-61
2022/12/08 06:06:39;;;;;;;0.00;0.00;;;;;;;1.50;100.00;98134.28;5063005;28;20240;-62
2022/12/08 06:09:07;;;;;;;0.00;0.00;;;;;;;1.52;100.00;98135.00;5063816;28;20242;-62
2022/12/08 06:11:35;;;;;;;0.00;0.00;;;;;;;1.46;100.00;98135.44;5064443;28;20233;-62
2022/12/08 06:14:02;;;;;;;0.00;0.00;;;;;;;1.46;100.00;98133.69;5061506;28;20238;-62
2022/12/08 06:16:29;;;;;;;0.00;0.00;;;;;;;1.49;100.00;98136.97;5064031;28;20234;-61
2022/12/08 06:18:56;;;;;;;0.10;0.10;;;;;;;1.50;100.00;98131.72;5062449;28;20264;-61
2022/12/08 06:21:23;;;;;;;0.00;0.00;;;;;;;1.53;100.00;98141.00;5063711;28;20295;-62
2022/12/08 06:23:51;;;;;;;0.07;0.07;;;;;;;1.45;100.00;98132.06;5062096;28;20238;-62
2022/12/08 06:26:19;;;;;;;0.03;0.03;;;;;;;1.44;100.00;98132.13;5064003;28;20234;-62
2022/12/08 06:28:48;;;;;;;0.00;0.00;;;;;;;1.39;100.00;98131.63;5062285;28;20241;-62
2022/12/08 06:31:16;;;;;;;0.00;0.00;;;;;;;1.29;100.00;98129.69;5063138;28;20267;-61
2022/12/08 06:33:43;;;;;;;0.10;0.10;;;;;;;1.14;100.00;98128.16;5061445;28;20260;-62
2022/12/08 06:36:11;;;;;;;0.00;0.00;;;;;;;0.95;100.00;98126.84;5063501;28;20749;-62
2022/12/08 06:38:38;;;;;;;0.00;0.00;;;;;;;0.78;100.00;98129.69;5063441;28;20230;-62
2022/12/08 06:41:05;;;;;;;0.00;0.00;;;;;;;0.72;100.00;98126.59;5061315;28;20686;-61
2022/12/08 06:43:32;;;;;;;0.00;0.00;;;;;;;0.57;100.00;98125.84;5063096;28;20238;-61
2022/12/08 06:46:01;;;;;;;0.00;0.00;;;;;;;0.44;100.00;98125.03;5061449;28;20741;-61
2022/12/08 06:48:28;;;;;;;0.00;0.00;;;;;;;0.37;100.00;98126.34;5063618;28;20230;-62
2022/12/08 06:50:54;;;;;;;0.07;0.07;;;;;;;0.37;100.00;98128.91;5061665;28;20263;-62
2022/12/08 06:53:21;;;;;;;0.10;0.10;;;;;;;0.38;100.00;98131.34;5063250;28;20567;-62
2022/12/08 06:55:52;;;;;;;0.00;0.00;;;;;;;0.42;100.00;98127.66;5061726;28;20590;-61
2022/12/08 06:58:20;;;;;;;0.03;0.03;;;;;;;0.50;100.00;98132.31;5045337;28;20226;-61
2022/12/08 07:00:46;;;;;;;0.00;0.00;;;;;;;0.53;100.00;98133.84;5061235;28;20226;-62
2022/12/08 07:03:14;;;;;;;0.00;0.00;;;;;;;0.55;100.00;98132.81;5062974;28;20234;-60
2022/12/08 07:05:41;;;;;;;0.00;0.00;;;;;;;0.58;100.00;98136.94;5061643;28;20229;-61
2022/12/08 07:08:08;;;;;;;0.00;0.00;;;;;;;0.62;100.00;98135.84;5060281;28;20235;-61
2022/12/08 07:10:35;;;;;;;0.00;0.00;;;;;;;0.66;100.00;98134.72;5063066;28;20230;-61
2022/12/08 07:13:02;;;;;;;0.10;0.10;;;;;;;0.67;100.00;98136.34;5057753;28;20636;-61
2022/12/08 07:15:29;;;;;;;0.00;0.00;;;;;;;0.77;100.00;98135.75;5063667;28;20241;-61
2022/12/08 07:17:55;;;;;;;0.00;0.00;;;;;;;0.80;100.00;98138.94;5061716;28;20241;-61
2022/12/08 07:20:23;;;;;;;0.00;0.00;;;;;;;0.82;100.00;98146.56;5062850;28;20248;-61
2022/12/08 07:22:50;;;;;;;0.00;0.00;;;;;;;0.88;100.00;98146.16;5061535;28;20238;-61
2022/12/08 07:25:17;;;;;;;0.00;0.00;;;;;;;0.90;100.00;98146.03;5063232;28;20604;-61
2022/12/08 07:27:44;;;;;;;0.00;0.00;;;;;;;0.96;100.00;98151.59;5062940;28;20229;-59
2022/12/08 07:30:11;;;;;;;0.00;0.00;;;;;;;0.97;100.00;98150.69;5067050;28;20360;-61
2022/12/08 07:32:38;;;;;;;0.00;0.00;;;;;;;0.96;100.00;98145.63;5067624;28;20772;-61
2022/12/08 07:35:06;;;;;;;0.00;0.00;;;;;;;1.01;100.00;98144.41;5063716;28;20249;-60
2022/12/08 07:37:35;;;;;;;0.00;0.00;;;;;;;1.10;100.00;98139.56;5067274;28;20233;-61
2022/12/08 07:40:02;;;;;;;0.00;0.00;;;;;;;1.10;100.00;98142.13;5063871;28;20234;-60
2022/12/08 07:42:28;;;;;;;0.00;0.00;;;;;;;1.10;100.00;98142.97;5066797;28;20226;-61
2022/12/08 07:44:55;;;;;;;0.00;0.00;;;;;;;1.17;100.00;98140.78;5063330;28;20234;-61
2022/12/08 07:47:21;;;;;;;0.07;0.07;;;;;;;1.21;100.00;98142.22;5066432;28;20237;-61
2022/12/08 07:49:48;;;;;;;0.00;0.00;;;;;;;1.23;100.00;98137.81;5064633;28;20287;-60
2022/12/08 07:52:14;;;;;;;0.00;0.00;;;;;;;1.29;100.00;98134.03;5066707;28;20625;-61
2022/12/08 07:54:42;;;;;;;0.00;0.00;;;;;;;1.40;100.00;98146.13;5064704;28;20236;-60
2022/12/08 07:57:09;;;;;;;0.10;0.10;;;;;;;1.45;100.00;98144.06;5066210;28;20233;-60
2022/12/08 07:59:36;;;;;;;0.00;0.00;;;;;;;1.50;100.00;98139.44;5067183;28;20288;-61
2022/12/08 08:02:03;;;;;;;0.10;0.10;;;;;;;1.60;100.00;98137.88;5064160;28;20238;-61
2022/12/08 08:04:29;;;;;;;0.10;0.10;;;;;;;1.60;100.00;98134.47;5048769;28;20636;-61
2022/12/08 08:06:56;;;;;;;0.00;0.00;;;;;;;1.69;100.00;98138.16;5064309;28;20710;-61
2022/12/08 08:09:22;;;;;;;0.00;0.00;;;;;;;1.76;100.00;98134.25;5066066;28;20234;-61
2022/12/08 08:11:50;;;;;;;0.00;0.00;;;;;;;1.86;100.00;98136.97;5064593;28;20238;-61
2022/12/08 08:14:17;;;;;;;0.00;0.00;;;;;;;1.89;100.00;98139.34;5066078;28;20730;-61
2022/12/08 08:16:46;;;;;;;0.00;0.00;;;;;;;1.71;100.00;98131.16;5064527;28;21010;-61
2022/12/08 08:19:12;;;;;;;0.00;0.00;;;;;;;1.58;100.00;98137.16;5066105;28;20226;-61
2022/12/08 08:21:39;;;;;;;0.03;0.03;;;;;;;1.56;100.00;98133.88;5066999;28;20828;-61
2022/12/08 08:24:06;;;;;;;0.00;0.00;;;;;;;1.63;100.00;98129.09;5063956;28;20234;-61
2022/12/08 08:26:33;;;;;;;0.00;0.00;;;;;;;1.71;100.00;98126.81;5066593;28;20722;-61
2022/12/08 08:29:00;;;;;;;0.07;0.07;;;;;;;1.76;100.00;98131.66;5064468;28;21318;-61
2022/12/08 08:31:27;;;;;;;0.00;0.00;;;;;;;1.81;100.00;98123.63;5066191;28;20234;-61
2022/12/08 08:33:55;;;;;;;0.00;0.00;;;;;;;1.76;100.00;98122.19;5063234;28;20256;-61
2022/12/08 08:36:22;;;;;;;0.00;0.00;;;;;;;1.69;100.00;98120.16;5065283;28;22974;-61
2022/12/08 08:38:48;;;;;;;0.00;0.00;;;;;;;1.63;100.00;98116.25;5062203;28;20696;-61
2022/12/08 08:41:15;;;;;;;0.00;0.00;;;;;;;1.56;100.00;98112.47;5065761;28;20712;-61
2022/12/08 08:43:41;;;;;;;0.00;0.00;;;;;;;1.46;100.00;98114.84;5063595;28;20222;-61
2022/12/08 08:46:09;;;;;;;0.00;0.00;;;;;;;1.41;100.00;98109.19;5066299;28;20241;-61
2022/12/08 08:48:36;;;;;;;0.00;0.00;;;;;;;1.41;100.00;98111.78;5066560;28;20219;-61
2022/12/08 08:51:08;;;;;;;0.00;0.00;;;;;;;1.43;100.00;98113.31;5063264;28;20283;-61
2022/12/08 08:53:35;;;;;;;0.00;0.00;;;;;;;1.52;100.00;98111.06;5066126;28;20237;-61
2022/12/08 08:56:03;;;;;;;0.10;0.10;;;;;;;1.52;100.00;98109.28;5062775;28;20638;-61
2022/12/08 08:58:30;;;;;;;0.00;0.00;;;;;;;1.62;100.00;98110.28;5066712;28;20275;-61
2022/12/08 09:00:57;;;;;;;0.00;0.00;;;;;;;1.69;100.00;98105.53;5063811;28;20218;-61
2022/12/08 09:03:25;;;;;;;0.00;0.00;;;;;;;1.68;100.00;98101.31;5064698;28;20242;-61
2022/12/08 09:05:51;;;;;;;0.07;0.07;;;;;;;1.75;100.00;98099.94;5063790;28;20230;-60
2022/12/08 09:08:18;;;;;;;0.00;0.00;;;;;;;1.70;100.00;98101.22;5064828;28;20237;-61
2022/12/08 09:10:45;;;;;;;0.00;0.00;;;;;;;1.66;100.00;98092.88;5063511;28;20309;-61
2022/12/08 09:13:11;;;;;;;0.00;0.00;;;;;;;1.64;100.00;98092.16;5065198;28;20737;-61
2022/12/08 09:15:38;;;;;;;0.00;0.00;;;;;;;1.62;100.00;98094.03;5066094;28;20230;-61
2022/12/08 09:18:05;;;;;;;0.03;0.03;;;;;;;1.67;100.00;98091.13;5063116;28;20222;-61
2022/12/08 09:20:34;;;;;;;0.00;0.00;;;;;;;1.59;100.00;98096.84;5066034;28;20226;-61
2022/12/08 09:23:00;;;;;;;0.00;0.00;;;;;;;1.64;100.00;98094.75;5063021;28;20242;-61
2022/12/08 09:25:28;;;;;;;0.00;0.00;;;;;;;1.68;100.00;98096.16;5064861;28;20245;-61
2022/12/08 09:27:54;;;;;;;0.00;0.00;;;;;;;1.71;100.00;98093.38;5062961;28;20313;-62
2022/12/08 09:30:21;;;;;;;0.00;0.00;;;;;;;1.59;100.00;98094.25;5064836;28;20226;-61
2022/12/08 09:32:47;;;;;;;0.00;0.00;;;;;;;1.71;100.00;98102.88;5061322;28;21050;-62
2022/12/08 09:35:14;;;;;;;0.00;0.00;;;;;;;1.79;100.00;98099.75;5064314;28;20281;-63
2022/12/08 09:37:42;;;;;;;0.00;0.00;;;;;;;2.04;100.00;98109.94;5062934;28;20238;-62
2022/12/08 09:40:15;;;;;;;0.00;0.00;;;;;;;2.38;100.00;98101.53;5064332;28;20280;-54
2022/12/08 09:42:50;;;;;;;0.00;0.00;;;;;;;2.79;100.00;98104.56;5062336;28;20238;-57
2022/12/08 09:45:18;;;;;;;0.03;0.03;;;;;;;2.44;100.00;98101.09;5063354;28;20229;-58
2022/12/08 09:47:57;;;;;;;0.00;0.00;;;;;;;2.41;100.00;98091.00;5061928;28;20225;-56
2022/12/08 09:50:32;;;;;;;0.00;0.00;;;;;;;2.52;100.00;98090.25;5062627;28;20646;-60
2022/12/08 09:53:07;;;;;;;0.00;0.00;;;;;;;2.45;100.00;98081.31;5059632;28;20687;-61
2022/12/08 09:55:42;;;;;;;0.00;0.00;;;;;;;2.45;100.00;98086.47;5045311;28;20234;-61
2022/12/08 09:58:19;;;;;;;0.00;0.00;;;;;;;2.41;100.00;98082.47;5061650;28;20238;-61
2022/12/08 10:00:46;;;;;;;0.00;0.00;;;;;;;2.48;100.00;98081.09;5061694;28;20275;-61
2022/12/08 10:03:13;;;;;;;0.10;0.10;;;;;;;2.62;100.00;98077.50;5064024;28;20238;-62
2022/12/08 10:05:46;;;;;;;0.00;0.00;;;;;;;2.77;100.00;98068.63;5064096;28;20230;-60
2022/12/08 10:08:20;;;;;;;0.00;0.00;;;;;;;3.01;100.00;98065.13;5061340;28;20234;-62
2022/12/08 10:10:54;;;;;;;0.00;0.00;;;;;;;3.36;100.00;98056.41;5060389;28;20309;-61
2022/12/08 10:13:29;;;;;;;0.00;0.00;;;;;;;3.46;96.13;98048.78;5062738;28;20229;-61
2022/12/08 10:16:07;;;;;;;0.10;0.10;;;;;;;3.19;97.72;98057.72;5060171;28;20244;-61
2022/12/08 10:18:36;;;;;;;0.10;0.10;;;;;;;3.47;96.41;98053.03;5034914;28;20226;-61
2022/12/08 10:21:13;;;;;;;0.00;0.00;;;;;;;3.57;98.22;98047.94;5061170;28;20234;-60
2022/12/08 10:23:44;;;;;;;0.10;0.10;;;;;;;3.62;92.06;98045.03;5060196;28;20233;-61
2022/12/08 10:26:14;;;;;;;0.00;0.00;;;;;;;3.61;94.94;98049.34;5063119;28;20222;-61
2022/12/08 10:28:41;;;;;;;0.10;0.10;;;;;;;3.38;96.43;98048.56;5061136;28;20638;-61
2022/12/08 10:31:14;;;;;;;0.00;0.00;;;;;;;3.54;98.06;98043.03;5063232;28;20229;-61
2022/12/08 10:33:41;;;;;;;0.00;0.00;;;;;;;3.64;96.17;98048.31;5061182;28;20295;-61
2022/12/08 10:36:10;;;;;;;0.00;0.00;;;;;;;3.67;96.38;98046.28;5044759;28;20237;-61
2022/12/08 10:38:38;;;;;;;0.00;0.00;;;;;;;3.73;96.47;98046.75;5061964;28;20709;-61
2022/12/08 10:41:13;;;;;;;0.00;0.00;;;;;;;3.72;95.68;98042.53;5060781;28;20230;-61
2022/12/08 10:43:43;;;;;;;0.00;0.00;;;;;;;3.76;94.91;98039.56;5063219;28;20291;-61
2022/12/08 10:46:12;;;;;;;0.10;0.10;;;;;;;3.84;95.87;98028.63;5060563;28;20578;-62
2022/12/08 10:48:48;;;;;;;0.00;0.00;;;;;;;3.83;95.49;98035.53;5062966;28;20240;-61
2022/12/08 10:51:23;;;;;;;0.03;0.03;;;;;;;4.05;94.42;98030.44;5060569;28;20276;-61
2022/12/08 10:53:50;;;;;;;0.00;0.00;;;;;;;3.99;90.85;98032.56;5060650;28;20705;-60
2022/12/08 10:56:18;;;;;;;0.00;0.00;;;;;;;3.67;93.11;98030.78;5063051;28;20241;-61
2022/12/08 10:58:47;;;;;;;0.00;0.00;;;;;;;3.58;93.56;98041.84;5060974;28;20276;-60
2022/12/08 11:01:17;;;;;;;0.00;0.00;;;;;;;3.31;95.67;98030.16;5061603;28;20238;-61
2022/12/08 11:03:47;;;;;;;0.10;0.10;;;;;;;3.29;95.10;98026.06;5059892;28;20235;-61
2022/12/08 11:06:17;;;;;;;0.07;0.07;;;;;;;3.19;95.79;98026.78;5062882;28;20355;-61
2022/12/08 11:08:48;;;;;;;0.00;0.00;;;;;;;3.13;96.86;98029.03;5061008;28;20287;-62
2022/12/08 11:11:16;;;;;;;0.10;0.10;;;;;;;3.27;96.48;98021.00;5063497;28;20230;-61
2022/12/08 11:13:44;;;;;;;0.03;0.03;;;;;;;3.44;97.03;98011.13;5043524;28;20308;-61
2022/12/08 11:16:15;;;;;;;0.10;0.10;;;;;;;3.50;96.55;98018.41;5063151;28;20241;-61
2022/12/08 11:18:45;;;;;;;0.00;0.00;;;;;;;3.52;96.66;98007.03;5061385;28;20222;-62
2022/12/08 11:21:15;;;;;;;0.00;0.00;;;;;;;3.52;94.34;97996.72;5062991;28;20710;-61
2022/12/08 11:23:47;;;;;;;0.10;0.10;;;;;;;3.58;93.81;98002.31;5043656;28;20239;-62
2022/12/08 11:26:25;;;;;;;0.00;0.00;;;;;;;3.61;93.03;98000.31;5062976;28;20234;-61
2022/12/08 11:28:55;;;;;;;0.00;0.00;;;;;;;3.79;94.02;97994.63;5061532;28;20332;-62
2022/12/08 11:31:30;;;;;;;0.07;0.07;;;;;;;3.96;92.19;97995.84;5062926;28;20238;-61
2022/12/08 11:33:56;;;;;;;0.00;0.00;;;;;;;3.89;89.44;97990.34;5059045;28;20234;-61
2022/12/08 11:36:26;;;;;;;0.00;0.00;;;;;;;3.89;93.30;97986.94;5062775;28;20276;-61
2022/12/08 11:38:57;;;;;;;0.10;0.10;;;;;;;4.08;90.48;97987.09;5061168;28;20241;-62
2022/12/08 11:41:27;;;;;;;0.00;0.00;;;;;;;4.05;90.11;97978.78;5062326;28;20234;-61
2022/12/08 11:44:01;;;;;;;0.10;0.10;;;;;;;3.63;91.09;97977.78;5060597;28;20234;-61
2022/12/08 11:46:33;;;;;;;0.10;0.10;;;;;;;3.58;89.62;97984.25;5062933;28;20225;-61